createdAt,value
2022-08-03T00:00:37.659Z,25
2022-08-03T00:01:37.670Z,25
2022-08-03T00:02:37.702Z,25
2022-08-03T00:03:37.722Z,24.9
2022-08-03T00:04:37.662Z,24.9
2022-08-03T00:05:37.668Z,24.9
2022-08-03T00:06:37.687Z,24.9
2022-08-03T00:07:37.655Z,24.9
2022-08-03T00:08:40.198Z,24.9
2022-08-03T00:09:37.657Z,24.9
2022-08-03T00:10:37.666Z,24.9
2022-08-03T00:11:37.665Z,24.9
2022-08-03T00:12:37.656Z,24.9
2022-08-03T00:13:37.669Z,24.9
2022-08-03T00:15:37.663Z,24.8
2022-08-03T00:16:37.668Z,24.8
2022-08-03T00:17:52.782Z,24.8
2022-08-03T00:18:37.666Z,24.8
2022-08-03T00:19:37.671Z,24.8
2022-08-03T00:20:37.670Z,24.8
2022-08-03T00:21:37.663Z,24.8
2022-08-03T00:22:37.667Z,24.8
2022-08-03T00:23:52.429Z,24.8
2022-08-03T00:24:37.664Z,24.8
2022-08-03T00:25:37.656Z,24.8
2022-08-03T00:26:37.664Z,24.8
2022-08-03T00:27:37.670Z,24.8
2022-08-03T00:28:37.664Z,24.8
2022-08-03T00:30:00.024Z,24.8
2022-08-03T00:30:37.658Z,24.8
2022-08-03T00:31:51.424Z,24.8
2022-08-03T00:32:41.373Z,24.7
2022-08-03T00:33:58.348Z,24.7
2022-08-03T00:34:57.367Z,24.7
2022-08-03T00:35:50.890Z,24.7
2022-08-03T00:36:37.668Z,24.7
2022-08-03T00:37:41.187Z,24.7
2022-08-03T00:38:37.668Z,24.7
2022-08-03T00:39:37.674Z,24.6
2022-08-03T00:40:37.670Z,24.7
2022-08-03T00:41:37.667Z,24.6
2022-08-03T00:42:37.678Z,24.6
2022-08-03T00:43:37.669Z,24.6
2022-08-03T00:44:37.670Z,24.6
2022-08-03T00:45:37.684Z,24.5
2022-08-03T00:46:37.675Z,24.6
2022-08-03T00:47:37.671Z,24.5
2022-08-03T00:48:37.669Z,24.5
2022-08-03T00:49:37.748Z,24.5
2022-08-03T00:50:37.674Z,24.5
2022-08-03T00:51:37.668Z,24.5
2022-08-03T00:52:37.667Z,24.5
2022-08-03T00:53:37.672Z,24.5
2022-08-03T00:54:37.673Z,24.5
2022-08-03T00:55:37.671Z,24.5
2022-08-03T00:56:37.671Z,24.4
2022-08-03T00:57:37.674Z,24.4
2022-08-03T00:58:37.681Z,24.4
2022-08-03T00:59:37.667Z,24.4
2022-08-03T01:00:37.676Z,24.5
2022-08-03T01:01:37.724Z,24.4
2022-08-03T01:02:37.676Z,24.4
2022-08-03T01:03:37.676Z,24.4
2022-08-03T01:04:37.671Z,24.3
2022-08-03T01:05:37.680Z,24.3
2022-08-03T01:06:37.680Z,24.3
2022-08-03T01:07:37.680Z,24.3
2022-08-03T01:08:37.681Z,24.3
2022-08-03T01:09:37.674Z,24.3
2022-08-03T01:10:37.675Z,24.3
2022-08-03T01:11:37.684Z,24.3
2022-08-03T01:12:37.675Z,24.3
2022-08-03T01:14:03.744Z,24.3
2022-08-03T01:14:37.699Z,24.3
2022-08-03T01:15:37.677Z,24.3
2022-08-03T01:16:37.677Z,24.2
2022-08-03T01:17:37.699Z,24.2
2022-08-03T01:18:37.681Z,24.2
2022-08-03T01:19:37.675Z,24.1
2022-08-03T01:20:37.683Z,24.1
2022-08-03T01:21:37.676Z,24.1
2022-08-03T01:22:37.681Z,24
2022-08-03T01:23:37.693Z,24
2022-08-03T01:24:37.690Z,24
2022-08-03T01:25:37.699Z,24
2022-08-03T01:26:37.695Z,24
2022-08-03T01:27:37.696Z,24
2022-08-03T01:28:37.692Z,24
2022-08-03T01:29:37.680Z,24
2022-08-03T01:30:37.687Z,24
2022-08-03T01:32:58.771Z,24
2022-08-03T01:33:02.615Z,24.1
2022-08-03T01:33:37.685Z,24.1
2022-08-03T01:34:37.684Z,24.1
2022-08-03T01:35:38.693Z,24.1
2022-08-03T01:36:37.687Z,24
2022-08-03T01:37:38.755Z,24
2022-08-03T01:38:37.696Z,24
2022-08-03T01:39:37.698Z,24
2022-08-03T01:40:37.715Z,24
2022-08-03T01:41:37.697Z,23.9
2022-08-03T01:42:37.709Z,23.9
2022-08-03T01:44:26.681Z,23.9
2022-08-03T01:44:37.690Z,23.9
2022-08-03T01:45:37.683Z,23.9
2022-08-03T01:46:37.710Z,23.9
2022-08-03T01:47:37.693Z,23.9
2022-08-03T01:48:37.698Z,23.9
2022-08-03T01:49:37.767Z,23.9
2022-08-03T01:50:37.689Z,23.9
2022-08-03T01:52:04.562Z,23.9
2022-08-03T01:52:37.688Z,23.9
2022-08-03T01:53:37.692Z,23.9
2022-08-03T01:54:37.689Z,23.9
2022-08-03T01:56:37.699Z,23.9
2022-08-03T01:58:05.391Z,23.9
2022-08-03T01:58:37.696Z,23.9
2022-08-03T01:59:37.695Z,23.9
2022-08-03T02:00:37.965Z,23.9
2022-08-03T02:02:16.116Z,23.9
2022-08-03T02:02:38.194Z,23.8
2022-08-03T02:03:37.693Z,23.9
2022-08-03T02:04:37.694Z,23.9
2022-08-03T02:05:37.695Z,23.9
2022-08-03T02:07:01.479Z,23.8
2022-08-03T02:07:37.694Z,23.9
2022-08-03T02:08:37.691Z,23.9
2022-08-03T02:09:37.693Z,23.9
2022-08-03T02:10:37.729Z,23.9
2022-08-03T02:11:37.697Z,23.9
2022-08-03T02:12:37.696Z,23.8
2022-08-03T02:13:37.692Z,23.8
2022-08-03T02:14:37.701Z,23.8
2022-08-03T02:15:37.690Z,23.8
2022-08-03T02:16:37.699Z,23.8
2022-08-03T02:17:38.986Z,23.9
2022-08-03T02:18:37.691Z,23.8
2022-08-03T02:19:37.696Z,23.8
2022-08-03T02:20:37.700Z,23.8
2022-08-03T02:21:55.786Z,23.8
2022-08-03T02:22:37.694Z,23.8
2022-08-03T02:23:37.694Z,23.8
2022-08-03T02:28:37.707Z,23.8
2022-08-03T02:29:40.091Z,23.8
2022-08-03T02:30:37.697Z,23.8
2022-08-03T02:31:37.701Z,23.8
2022-08-03T02:32:37.711Z,23.8
2022-08-03T02:33:37.711Z,23.8
2022-08-03T02:34:37.703Z,23.7
2022-08-03T02:35:37.705Z,23.7
2022-08-03T02:36:37.708Z,23.7
2022-08-03T02:37:37.699Z,23.7
2022-08-03T02:38:37.696Z,23.7
2022-08-03T02:39:37.707Z,23.7
2022-08-03T02:40:37.695Z,23.7
2022-08-03T02:41:37.709Z,23.7
2022-08-03T02:42:37.709Z,23.7
2022-08-03T02:43:56.773Z,23.7
2022-08-03T02:44:37.702Z,23.7
2022-08-03T02:45:37.853Z,23.7
2022-08-03T02:46:37.709Z,23.7
2022-08-03T02:47:53.903Z,23.7
2022-08-03T02:48:37.707Z,23.7
2022-08-03T02:49:50.452Z,23.6
2022-08-03T02:50:37.698Z,23.6
2022-08-03T02:51:37.725Z,23.5
2022-08-03T02:52:37.701Z,23.5
2022-08-03T02:53:37.713Z,23.4
2022-08-03T02:54:37.714Z,23.4
2022-08-03T02:55:43.192Z,23.4
2022-08-03T02:56:37.710Z,23.4
2022-08-03T02:57:37.702Z,23.4
2022-08-03T02:58:37.706Z,23.4
2022-08-03T02:59:37.705Z,23.4
2022-08-03T03:00:37.766Z,23.4
2022-08-03T03:01:37.701Z,23.4
2022-08-03T03:02:37.739Z,23.4
2022-08-03T03:03:40.000Z,23.4
2022-08-03T03:04:37.704Z,23.4
2022-08-03T03:05:53.654Z,23.4
2022-08-03T03:06:37.718Z,23.4
2022-08-03T03:07:52.890Z,23.4
2022-08-03T03:08:37.718Z,23.4
2022-08-03T03:09:40.483Z,23.5
2022-08-03T03:10:37.701Z,23.4
2022-08-03T03:11:37.708Z,23.4
2022-08-03T03:12:37.714Z,23.4
2022-08-03T03:13:37.708Z,23.5
2022-08-03T03:14:37.714Z,23.5
2022-08-03T03:15:37.705Z,23.5
2022-08-03T03:16:37.722Z,23.5
2022-08-03T03:17:37.718Z,23.5
2022-08-03T03:18:37.717Z,23.5
2022-08-03T03:19:37.712Z,23.5
2022-08-03T03:20:37.702Z,23.5
2022-08-03T03:22:37.722Z,23.5
2022-08-03T03:23:37.714Z,23.5
2022-08-03T03:24:37.707Z,23.4
2022-08-03T03:25:37.707Z,23.4
2022-08-03T03:26:42.303Z,23.5
2022-08-03T03:27:37.712Z,23.4
2022-08-03T03:28:37.727Z,23.4
2022-08-03T03:29:39.416Z,23.4
2022-08-03T03:30:37.717Z,23.4
2022-08-03T03:31:37.715Z,23.3
2022-08-03T03:32:37.722Z,23.3
2022-08-03T03:33:37.723Z,23.3
2022-08-03T03:35:39.224Z,23.2
2022-08-03T03:36:37.716Z,23.3
2022-08-03T03:37:37.720Z,23.3
2022-08-03T03:38:37.720Z,23.3
2022-08-03T03:39:37.715Z,23.3
2022-08-03T03:40:37.718Z,23.3
2022-08-03T03:42:37.714Z,23.3
2022-08-03T03:43:37.752Z,23.3
2022-08-03T03:44:37.718Z,23.3
2022-08-03T03:45:37.714Z,23.3
2022-08-03T03:46:37.961Z,23.3
2022-08-03T03:47:37.720Z,23.3
2022-08-03T03:48:37.727Z,23.3
2022-08-03T03:49:37.865Z,23.3
2022-08-03T03:50:37.746Z,23.3
2022-08-03T03:51:37.720Z,23.3
2022-08-03T03:52:37.717Z,23.3
2022-08-03T03:53:37.729Z,23.3
2022-08-03T03:54:37.720Z,23.3
2022-08-03T03:56:37.719Z,23.3
2022-08-03T03:57:37.725Z,23.4
2022-08-03T03:58:37.723Z,23.4
2022-08-03T03:59:37.717Z,23.3
2022-08-03T04:00:37.780Z,23.3
2022-08-03T04:01:37.731Z,23.3
2022-08-03T04:03:37.720Z,23.4
2022-08-03T04:04:37.735Z,23.3
2022-08-03T04:05:37.721Z,23.3
2022-08-03T04:06:37.726Z,23.3
2022-08-03T04:07:37.726Z,23.4
2022-08-03T04:08:37.719Z,23.4
2022-08-03T04:09:37.729Z,23.4
2022-08-03T04:10:37.727Z,23.4
2022-08-03T04:11:37.725Z,23.4
2022-08-03T04:12:37.719Z,23.4
2022-08-03T04:13:37.720Z,23.4
2022-08-03T04:14:37.725Z,23.4
2022-08-03T04:15:37.716Z,23.4
2022-08-03T04:16:41.911Z,23.4
2022-08-03T04:17:37.727Z,23.4
2022-08-03T04:18:37.731Z,23.5
2022-08-03T04:19:37.958Z,23.5
2022-08-03T04:20:37.732Z,23.5
2022-08-03T04:21:37.729Z,23.5
2022-08-03T04:22:37.735Z,23.5
2022-08-03T04:23:37.733Z,23.5
2022-08-03T04:24:37.730Z,23.5
2022-08-03T04:25:37.725Z,23.5
2022-08-03T04:26:37.733Z,23.5
2022-08-03T04:27:37.741Z,23.5
2022-08-03T04:28:37.728Z,23.5
2022-08-03T04:29:38.599Z,23.5
2022-08-03T04:30:37.728Z,23.5
2022-08-03T04:31:37.726Z,23.5
2022-08-03T04:32:37.773Z,23.5
2022-08-03T04:33:37.722Z,23.5
2022-08-03T04:34:37.731Z,23.6
2022-08-03T04:36:01.461Z,23.6
2022-08-03T04:36:37.739Z,23.6
2022-08-03T04:37:37.740Z,23.6
2022-08-03T04:38:37.727Z,23.6
2022-08-03T04:39:37.730Z,23.7
2022-08-03T04:42:08.384Z,23.7
2022-08-03T04:42:37.739Z,23.6
2022-08-03T04:43:37.738Z,23.7
2022-08-03T04:44:37.727Z,23.7
2022-08-03T04:45:37.738Z,23.7
2022-08-03T04:46:37.730Z,23.7
2022-08-03T04:47:37.750Z,23.7
2022-08-03T04:48:37.738Z,23.7
2022-08-03T04:49:37.934Z,23.7
2022-08-03T04:50:37.737Z,23.7
2022-08-03T04:51:37.739Z,23.6
2022-08-03T04:52:37.735Z,23.6
2022-08-03T04:53:37.742Z,23.7
2022-08-03T04:55:37.738Z,23.7
2022-08-03T04:56:37.739Z,23.8
2022-08-03T04:57:37.742Z,23.8
2022-08-03T04:58:37.742Z,23.8
2022-08-03T04:59:39.087Z,23.9
2022-08-03T05:00:37.745Z,23.9
2022-08-03T05:01:37.824Z,23.9
2022-08-03T05:02:37.751Z,23.9
2022-08-03T05:03:37.737Z,24
2022-08-03T05:04:37.741Z,24
2022-08-03T05:05:50.129Z,24
2022-08-03T05:07:37.748Z,24.1
2022-08-03T05:08:46.420Z,24.1
2022-08-03T05:09:52.313Z,24.2
2022-08-03T05:10:37.750Z,24.2
2022-08-03T05:11:37.749Z,24.3
2022-08-03T05:12:37.736Z,24.3
2022-08-03T05:13:37.742Z,24.3
2022-08-03T05:14:37.742Z,24.4
2022-08-03T05:15:42.826Z,24.4
2022-08-03T05:16:37.742Z,24.5
2022-08-03T05:17:37.751Z,24.6
2022-08-03T05:18:37.760Z,24.6
2022-08-03T05:20:37.748Z,24.8
2022-08-03T05:21:50.405Z,24.9
2022-08-03T05:22:37.745Z,25
2022-08-03T05:23:37.757Z,25.1
2022-08-03T05:24:37.745Z,25.2
2022-08-03T05:25:37.735Z,25.3
2022-08-03T05:26:37.771Z,25.4
2022-08-03T05:27:37.742Z,25.5
2022-08-03T05:28:37.753Z,25.6
2022-08-03T05:29:37.746Z,25.8
2022-08-03T05:30:37.749Z,25.9
2022-08-03T05:31:37.745Z,26
2022-08-03T05:32:37.754Z,26.2
2022-08-03T05:33:37.747Z,26.3
2022-08-03T05:34:37.753Z,26.5
2022-08-03T05:36:00.925Z,26.6
2022-08-03T05:36:37.747Z,26.8
2022-08-03T05:38:37.766Z,27.1
2022-08-03T05:39:37.751Z,27.2
2022-08-03T05:40:37.751Z,27.4
2022-08-03T05:41:37.763Z,27.6
2022-08-03T05:42:37.754Z,27.7
2022-08-03T05:43:37.751Z,27.8
2022-08-03T05:44:37.760Z,28
2022-08-03T05:45:37.754Z,28.1
2022-08-03T05:46:37.745Z,28.3
2022-08-03T05:47:37.756Z,28.4
2022-08-03T05:48:37.758Z,28.6
2022-08-03T05:49:37.821Z,28.7
2022-08-03T05:50:42.485Z,28.8
2022-08-03T05:51:37.761Z,29
2022-08-03T05:52:37.753Z,29.1
2022-08-03T05:53:37.763Z,29.1
2022-08-03T05:54:56.918Z,29.2
2022-08-03T05:55:37.762Z,29.4
2022-08-03T05:56:37.754Z,29.5
2022-08-03T05:57:37.759Z,29.7
2022-08-03T05:58:37.777Z,29.9
2022-08-03T05:59:38.678Z,30.1
2022-08-03T06:00:37.762Z,30.2
2022-08-03T06:01:37.782Z,30.4
2022-08-03T06:02:37.776Z,30.4
2022-08-03T06:03:37.761Z,30.4
2022-08-03T06:04:37.764Z,30.5
2022-08-03T06:05:37.765Z,30.5
2022-08-03T06:06:37.762Z,30.6
2022-08-03T06:07:37.767Z,30.6
2022-08-03T06:08:37.762Z,30.7
2022-08-03T06:10:34.866Z,30.8
2022-08-03T06:10:38.409Z,30.9
2022-08-03T06:11:37.770Z,31.1
2022-08-03T06:12:37.770Z,31.2
2022-08-03T06:13:37.764Z,31.3
2022-08-03T06:14:37.776Z,31.5
2022-08-03T06:15:37.771Z,31.6
2022-08-03T06:16:37.770Z,31.8
2022-08-03T06:17:37.952Z,31.9
2022-08-03T06:18:37.775Z,32.1
2022-08-03T06:19:37.758Z,32.3
2022-08-03T06:20:37.768Z,32.5
2022-08-03T06:21:37.776Z,32.6
2022-08-03T06:22:37.772Z,32.8
2022-08-03T06:23:54.122Z,33
2022-08-03T06:24:37.775Z,33.3
2022-08-03T06:25:37.776Z,33.4
2022-08-03T06:26:37.770Z,33.5
2022-08-03T06:27:37.799Z,33.5
2022-08-03T06:28:52.503Z,33.6
2022-08-03T06:29:37.778Z,33.7
2022-08-03T06:30:37.777Z,33.8
2022-08-03T06:31:37.772Z,34
2022-08-03T06:32:37.796Z,34.1
2022-08-03T06:34:31.327Z,34.2
2022-08-03T06:34:37.782Z,34.2
2022-08-03T06:35:37.776Z,34.2
2022-08-03T06:36:37.775Z,34.4
2022-08-03T06:37:37.786Z,34.6
2022-08-03T06:38:37.773Z,34.7
2022-08-03T06:39:37.781Z,34.9
2022-08-03T06:41:38.344Z,35.3
2022-08-03T06:42:37.779Z,35.5
2022-08-03T06:44:03.829Z,35.8
2022-08-03T06:44:37.786Z,36
2022-08-03T06:45:37.785Z,36.1
2022-08-03T06:46:37.792Z,36.2
2022-08-03T06:47:37.798Z,36.3
2022-08-03T06:48:37.781Z,36.3
2022-08-03T06:49:37.904Z,36.4
2022-08-03T06:50:37.779Z,36.4
2022-08-03T06:52:38.749Z,36.5
2022-08-03T06:53:37.781Z,36.5
2022-08-03T06:55:41.814Z,36.7
2022-08-03T06:56:37.783Z,36.7
2022-08-03T06:57:37.790Z,36.7
2022-08-03T06:58:37.800Z,36.8
2022-08-03T07:00:09.789Z,37
2022-08-03T07:00:37.792Z,37.2
2022-08-03T07:01:37.882Z,37.1
2022-08-03T07:02:37.794Z,37
2022-08-03T07:03:37.795Z,36.9
2022-08-03T07:04:37.788Z,36.7
2022-08-03T07:05:37.787Z,36.5
2022-08-03T07:06:37.792Z,36.3
2022-08-03T07:07:37.796Z,36.1
2022-08-03T07:08:37.790Z,35.9
2022-08-03T07:09:37.787Z,35.7
2022-08-03T07:10:37.799Z,35.4
2022-08-03T07:11:37.792Z,35.2
2022-08-03T07:13:37.794Z,34.8
2022-08-03T07:14:37.797Z,34.7
2022-08-03T07:16:37.791Z,34.7
2022-08-03T07:17:37.793Z,34.6
2022-08-03T07:18:37.790Z,34.4
2022-08-03T07:19:37.814Z,34.1
2022-08-03T07:20:37.805Z,33.8
2022-08-03T07:21:37.792Z,33.6
2022-08-03T07:22:37.805Z,33.5
2022-08-03T07:23:37.792Z,33.4
2022-08-03T07:24:38.084Z,33.2
2022-08-03T07:25:37.802Z,32.9
2022-08-03T07:26:37.803Z,32.7
2022-08-03T07:27:37.804Z,32.6
2022-08-03T07:28:37.808Z,32.4
2022-08-03T07:29:37.822Z,32.3
2022-08-03T07:30:37.832Z,32.1
2022-08-03T07:31:37.796Z,31.9
2022-08-03T07:32:37.808Z,31.7
2022-08-03T07:33:37.799Z,31.7
2022-08-03T07:34:37.798Z,31.6
2022-08-03T07:35:37.805Z,31.5
2022-08-03T07:37:37.808Z,31.4
2022-08-03T07:38:37.804Z,31.4
2022-08-03T07:39:37.815Z,31.5
2022-08-03T07:40:37.813Z,31.4
2022-08-03T07:41:37.809Z,31.5
2022-08-03T07:42:37.810Z,31.4
2022-08-03T07:43:37.814Z,31.6
2022-08-03T07:44:37.803Z,31.7
2022-08-03T07:45:37.808Z,31.9
2022-08-03T07:46:37.811Z,32.1
2022-08-03T07:47:37.812Z,32.3
2022-08-03T07:48:37.815Z,32.4
2022-08-03T07:49:37.934Z,32.6
2022-08-03T07:50:37.820Z,32.7
2022-08-03T07:51:37.826Z,32.9
2022-08-03T07:52:37.811Z,33.1
2022-08-03T07:53:37.924Z,33.3
2022-08-03T07:54:37.817Z,33.6
2022-08-03T07:55:37.821Z,34
2022-08-03T07:56:37.809Z,34.5
2022-08-03T07:58:37.821Z,35.2
2022-08-03T07:59:56.564Z,35.8
2022-08-03T08:00:37.820Z,36.3
2022-08-03T08:01:37.960Z,36.9
2022-08-03T08:02:37.839Z,37.5
2022-08-03T08:03:41.156Z,38.1
2022-08-03T08:04:37.810Z,38.7
2022-08-03T08:06:37.819Z,39.5
2022-08-03T08:07:37.829Z,39.8
2022-08-03T08:08:37.840Z,40.2
2022-08-03T08:09:37.976Z,40.5
2022-08-03T08:10:37.824Z,41
2022-08-03T08:11:40.111Z,41.4
2022-08-03T08:12:37.828Z,41.7
2022-08-03T08:13:37.844Z,42.1
2022-08-03T08:14:37.858Z,42.3
2022-08-03T08:15:42.875Z,42.6
2022-08-03T08:16:37.821Z,43
2022-08-03T08:17:37.826Z,43.2
2022-08-03T08:18:37.822Z,43.5
2022-08-03T08:19:38.341Z,44
2022-08-03T08:20:38.117Z,44.2
2022-08-03T08:21:53.193Z,44.6
2022-08-03T08:22:37.822Z,44.8
2022-08-03T08:23:42.463Z,45.2
2022-08-03T08:24:37.822Z,45.3
2022-08-03T08:25:37.827Z,45.2
2022-08-03T08:26:37.832Z,45.3
2022-08-03T08:28:30.666Z,45.2
2022-08-03T08:28:37.832Z,44.9
2022-08-03T08:29:37.830Z,44.6
2022-08-03T08:30:37.825Z,44.5
2022-08-03T08:31:37.827Z,44.6
2022-08-03T08:32:37.836Z,44.7
2022-08-03T08:34:02.716Z,44.3
2022-08-03T08:34:37.839Z,44
2022-08-03T08:35:37.835Z,43.6
2022-08-03T08:36:37.849Z,43.4
2022-08-03T08:37:37.835Z,43.1
2022-08-03T08:38:37.834Z,43
2022-08-03T08:39:37.833Z,43
2022-08-03T08:41:37.836Z,43
2022-08-03T08:42:37.837Z,43.2
2022-08-03T08:43:37.840Z,43.4
2022-08-03T08:44:37.842Z,43.7
2022-08-03T08:45:37.848Z,43.9
2022-08-03T08:46:37.851Z,44.3
2022-08-03T08:47:51.034Z,44.7
2022-08-03T08:48:37.844Z,45
2022-08-03T08:49:37.934Z,45.5
2022-08-03T08:51:54.759Z,46.3
2022-08-03T08:52:37.851Z,46.6
2022-08-03T08:53:37.850Z,46.8
2022-08-03T08:54:37.845Z,47.3
2022-08-03T08:55:59.732Z,47.7
2022-08-03T08:56:37.852Z,47.7
2022-08-03T08:57:43.131Z,48
2022-08-03T08:58:37.850Z,48.2
2022-08-03T08:59:48.735Z,48.2
2022-08-03T09:00:37.856Z,48.4
2022-08-03T09:01:37.936Z,48.5
2022-08-03T09:02:37.851Z,48.7
2022-08-03T09:03:37.860Z,49
2022-08-03T09:04:37.860Z,49.2
2022-08-03T09:06:37.857Z,49.5
2022-08-03T09:07:37.866Z,49.4
2022-08-03T09:08:37.861Z,49.1
2022-08-03T09:10:11.672Z,48.8
2022-08-03T09:10:37.866Z,49
2022-08-03T09:12:42.028Z,49.4
2022-08-03T09:13:37.876Z,49.6
2022-08-03T09:14:45.515Z,49.9
2022-08-03T09:15:37.855Z,50.1
2022-08-03T09:16:37.856Z,50.2
2022-08-03T09:17:37.863Z,50.1
2022-08-03T09:18:37.859Z,49.7
2022-08-03T09:19:37.861Z,49.6
2022-08-03T09:20:37.870Z,49.6
2022-08-03T09:21:37.858Z,49.6
2022-08-03T09:22:37.862Z,49.8
2022-08-03T09:23:59.799Z,50
2022-08-03T09:24:41.570Z,50.4
2022-08-03T09:25:37.871Z,50.5
2022-08-03T09:26:37.871Z,50.7
2022-08-03T09:27:37.869Z,51.1
2022-08-03T09:28:58.005Z,51.4
2022-08-03T09:29:37.862Z,51.2
2022-08-03T09:30:37.864Z,51.3
2022-08-03T09:31:37.874Z,51.6
2022-08-03T09:32:37.863Z,51.8
2022-08-03T09:33:37.861Z,52.2
2022-08-03T09:34:37.871Z,52.4
2022-08-03T09:35:53.723Z,52.6
2022-08-03T09:36:37.863Z,52.6
2022-08-03T09:38:12.106Z,52.6
2022-08-03T09:38:37.874Z,52.8
2022-08-03T09:39:40.961Z,52.6
2022-08-03T09:40:37.874Z,52.8
2022-08-03T09:41:37.876Z,52.7
2022-08-03T09:42:37.868Z,52.5
2022-08-03T09:43:37.908Z,52.4
2022-08-03T09:44:37.879Z,52.4
2022-08-03T09:45:37.869Z,52.5
2022-08-03T09:46:37.867Z,52.5
2022-08-03T09:47:37.882Z,52.4
2022-08-03T09:48:37.870Z,52.2
2022-08-03T09:49:37.929Z,51.8
2022-08-03T09:50:37.874Z,51.8
2022-08-03T09:52:33.660Z,52
2022-08-03T09:52:49.395Z,52.1
2022-08-03T09:53:37.903Z,52.4
2022-08-03T09:54:37.875Z,52.5
2022-08-03T09:56:32.706Z,52.2
2022-08-03T09:56:37.965Z,52.2
2022-08-03T09:57:37.875Z,52.1
2022-08-03T09:58:37.871Z,51.9
2022-08-03T09:59:38.079Z,51.5
2022-08-03T10:00:37.922Z,51.6
2022-08-03T10:01:37.901Z,51.7
2022-08-03T10:02:37.885Z,51.9
2022-08-03T10:04:03.441Z,51.8
2022-08-03T10:04:37.884Z,51.4
2022-08-03T10:05:37.888Z,51.3
2022-08-03T10:06:37.893Z,51.7
2022-08-03T10:07:37.891Z,52
2022-08-03T10:08:37.928Z,52.2
2022-08-03T10:09:37.902Z,52
2022-08-03T10:10:37.889Z,52.1
2022-08-03T10:11:41.752Z,52.2
2022-08-03T10:12:37.897Z,52.7
2022-08-03T10:13:37.886Z,53
2022-08-03T10:14:37.887Z,53.2
2022-08-03T10:16:23.006Z,53.3
2022-08-03T10:16:37.893Z,53.5
2022-08-03T10:17:40.343Z,53.6
2022-08-03T10:18:37.900Z,53.3
2022-08-03T10:19:37.890Z,53.1
2022-08-03T10:20:37.898Z,52.7
2022-08-03T10:21:37.926Z,52.5
2022-08-03T10:22:37.895Z,52.1
2022-08-03T10:23:37.893Z,52
2022-08-03T10:24:37.888Z,51.7
2022-08-03T10:25:37.895Z,51.7
2022-08-03T10:26:37.904Z,51.7
2022-08-03T10:27:37.895Z,52
2022-08-03T10:28:42.811Z,52.1
2022-08-03T10:29:37.896Z,52.7
2022-08-03T10:30:37.888Z,52.9
2022-08-03T10:31:37.895Z,53.2
2022-08-03T10:32:37.905Z,53.3
2022-08-03T10:33:51.253Z,53.5
2022-08-03T10:34:42.595Z,53.8
2022-08-03T10:35:37.892Z,54
2022-08-03T10:36:37.899Z,54.1
2022-08-03T10:37:37.925Z,54.2
2022-08-03T10:38:37.908Z,54.3
2022-08-03T10:39:37.895Z,54.6
2022-08-03T10:40:54.544Z,54.6
2022-08-03T10:41:37.902Z,54.7
2022-08-03T10:42:37.896Z,54.3
2022-08-03T10:43:37.898Z,54.4
2022-08-03T10:44:37.900Z,54.3
2022-08-03T10:45:37.906Z,54.4
2022-08-03T10:46:44.194Z,54.6
2022-08-03T10:47:37.907Z,54.7
2022-08-03T10:48:37.910Z,54.9
2022-08-03T10:49:37.954Z,54.2
2022-08-03T10:50:37.900Z,54
2022-08-03T10:51:37.910Z,54.1
2022-08-03T10:52:41.002Z,54.1
2022-08-03T10:53:37.909Z,54.2
2022-08-03T10:54:37.907Z,54.1
2022-08-03T10:55:37.897Z,54.1
2022-08-03T10:56:48.028Z,54.2
2022-08-03T10:57:37.907Z,53.9
2022-08-03T10:59:37.911Z,53.6
2022-08-03T11:00:37.979Z,53.2
2022-08-03T11:02:00.042Z,53.3
2022-08-03T11:02:37.909Z,53.3
2022-08-03T11:03:37.927Z,53.4
2022-08-03T11:04:37.923Z,53.3
2022-08-03T11:05:37.914Z,53.3
2022-08-03T11:06:37.917Z,53.5
2022-08-03T11:07:37.908Z,53.8
2022-08-03T11:08:37.913Z,53.8
2022-08-03T11:09:37.913Z,53.7
2022-08-03T11:10:37.910Z,53.4
2022-08-03T11:11:37.917Z,53.4
2022-08-03T11:12:37.925Z,53.2
2022-08-03T11:13:37.937Z,53.3
2022-08-03T11:14:37.937Z,53.3
2022-08-03T11:15:37.921Z,53.1
2022-08-03T11:16:37.926Z,52.8
2022-08-03T11:17:45.778Z,52.4
2022-08-03T11:18:37.933Z,51.7
2022-08-03T11:20:37.929Z,51.2
2022-08-03T11:21:37.937Z,51.1
2022-08-03T11:22:37.926Z,51.2
2022-08-03T11:24:02.417Z,51.3
2022-08-03T11:24:37.926Z,51.4
2022-08-03T11:25:55.119Z,51.5
2022-08-03T11:26:37.929Z,51.5
2022-08-03T11:27:37.927Z,51.5
2022-08-03T11:28:37.931Z,51.2
2022-08-03T11:29:37.937Z,50.8
2022-08-03T11:30:37.928Z,50.7
2022-08-03T11:31:49.728Z,50.7
2022-08-03T11:32:38.310Z,51
2022-08-03T11:33:37.932Z,51.1
2022-08-03T11:34:37.935Z,51.3
2022-08-03T11:35:37.931Z,51.4
2022-08-03T11:36:37.932Z,51.4
2022-08-03T11:37:37.926Z,51.3
2022-08-03T11:38:37.938Z,50.9
2022-08-03T11:39:37.934Z,50.8
2022-08-03T11:41:42.804Z,50.1
2022-08-03T11:42:37.935Z,49.6
2022-08-03T11:43:37.929Z,49.2
2022-08-03T11:44:37.936Z,48.8
2022-08-03T11:46:37.942Z,48.6
2022-08-03T11:47:37.944Z,48.7
2022-08-03T11:48:37.939Z,48.8
2022-08-03T11:49:37.997Z,48.9
2022-08-03T11:50:37.942Z,48.7
2022-08-03T11:51:37.994Z,48.5
2022-08-03T11:52:37.945Z,48.4
2022-08-03T11:53:42.031Z,48.2
2022-08-03T11:54:37.962Z,47.8
2022-08-03T11:55:37.944Z,47.4
2022-08-03T11:56:37.942Z,47
2022-08-03T11:59:01.190Z,46.4
2022-08-03T11:59:16.469Z,45.9
2022-08-03T11:59:38.835Z,45.6
2022-08-03T12:00:37.946Z,45.3
2022-08-03T12:02:37.940Z,44.9
2022-08-03T12:03:38.029Z,44.8
2022-08-03T12:04:37.949Z,44.7
2022-08-03T12:05:37.943Z,44.6
2022-08-03T12:06:37.950Z,44.3
2022-08-03T12:08:04.049Z,44
2022-08-03T12:08:37.955Z,43.8
2022-08-03T12:09:37.954Z,43.5
2022-08-03T12:10:37.948Z,43.4
2022-08-03T12:11:37.956Z,43.3
2022-08-03T12:12:37.966Z,43.1
2022-08-03T12:14:26.892Z,43.1
2022-08-03T12:14:48.893Z,43
2022-08-03T12:15:37.970Z,43
2022-08-03T12:16:37.961Z,42.8
2022-08-03T12:17:37.952Z,42.7
2022-08-03T12:18:38.021Z,42.4
2022-08-03T12:19:37.951Z,42.2
2022-08-03T12:20:37.960Z,41.9
2022-08-03T12:21:37.960Z,41.8
2022-08-03T12:23:38.180Z,41.5
2022-08-03T12:24:37.962Z,41.4
2022-08-03T12:25:39.394Z,41.3
2022-08-03T12:26:37.959Z,41.2
2022-08-03T12:27:37.966Z,41
2022-08-03T12:28:38.602Z,40.8
2022-08-03T12:29:37.961Z,40.8
2022-08-03T12:30:37.958Z,40.7
2022-08-03T12:31:37.961Z,40.7
2022-08-03T12:32:37.966Z,40.8
2022-08-03T12:33:37.957Z,40.8
2022-08-03T12:34:37.970Z,40.9
2022-08-03T12:35:37.970Z,40.9
2022-08-03T12:36:37.975Z,41
2022-08-03T12:37:38.062Z,41.2
2022-08-03T12:38:39.412Z,41.2
2022-08-03T12:39:37.973Z,41.1
2022-08-03T12:41:37.970Z,40.8
2022-08-03T12:42:37.981Z,40.8
2022-08-03T12:44:37.974Z,40.6
2022-08-03T12:45:37.973Z,40.6
2022-08-03T12:46:37.970Z,40.6
2022-08-03T12:47:37.978Z,40.3
2022-08-03T12:48:37.967Z,40.2
2022-08-03T12:49:37.997Z,40
2022-08-03T12:50:37.969Z,39.9
2022-08-03T12:51:37.989Z,39.9
2022-08-03T12:52:37.967Z,39.8
2022-08-03T12:53:37.973Z,39.8
2022-08-03T12:54:37.968Z,39.6
2022-08-03T12:55:57.867Z,39.5
2022-08-03T12:56:37.973Z,39.3
2022-08-03T12:57:37.972Z,39.1
2022-08-03T12:58:37.983Z,38.9
2022-08-03T12:59:40.446Z,38.7
2022-08-03T13:00:38.044Z,38.5
2022-08-03T13:01:38.077Z,38.3
2022-08-03T13:02:38.047Z,38.2
2022-08-03T13:03:39.687Z,38.1
2022-08-03T13:04:37.991Z,38
2022-08-03T13:05:38.022Z,37.9
2022-08-03T13:06:37.986Z,37.9
2022-08-03T13:07:37.979Z,38
2022-08-03T13:08:37.982Z,38
2022-08-03T13:09:37.990Z,37.9
2022-08-03T13:10:37.983Z,37.8
2022-08-03T13:11:57.921Z,37.6
2022-08-03T13:12:37.986Z,37.5
2022-08-03T13:13:37.984Z,37.4
2022-08-03T13:14:37.982Z,37.3
2022-08-03T13:15:38.532Z,37.2
2022-08-03T13:16:37.993Z,37.3
2022-08-03T13:17:37.990Z,37.2
2022-08-03T13:18:38.007Z,37.2
2022-08-03T13:19:37.984Z,37
2022-08-03T13:20:37.990Z,36.8
2022-08-03T13:22:37.981Z,36.7
2022-08-03T13:23:37.992Z,36.7
2022-08-03T13:24:37.996Z,36.7
2022-08-03T13:25:37.990Z,36.7
2022-08-03T13:26:38.007Z,36.8
2022-08-03T13:28:04.929Z,36.8
2022-08-03T13:28:37.997Z,36.8
2022-08-03T13:29:38.003Z,36.7
2022-08-03T13:30:37.999Z,36.7
2022-08-03T13:31:38.005Z,36.7
2022-08-03T13:32:38.002Z,36.8
2022-08-03T13:33:38.005Z,36.9
2022-08-03T13:34:37.987Z,37
2022-08-03T13:35:37.993Z,37
2022-08-03T13:37:06.367Z,37
2022-08-03T13:37:38.001Z,37
2022-08-03T13:38:38.303Z,36.9
2022-08-03T13:39:57.829Z,36.8
2022-08-03T13:41:38.007Z,36.8
2022-08-03T13:42:38.910Z,36.8
2022-08-03T13:43:37.991Z,36.8
2022-08-03T13:44:38.011Z,36.7
2022-08-03T13:45:38.006Z,36.7
2022-08-03T13:46:38.004Z,36.7
2022-08-03T13:47:38.094Z,36.7
2022-08-03T13:48:38.069Z,36.7
2022-08-03T13:49:38.013Z,36.7
2022-08-03T13:50:42.807Z,36.7
2022-08-03T13:51:38.012Z,36.7
2022-08-03T13:52:37.999Z,36.7
2022-08-03T13:53:38.039Z,36.6
2022-08-03T13:54:38.007Z,36.6
2022-08-03T13:55:38.018Z,36.6
2022-08-03T13:58:06.292Z,36.7
2022-08-03T13:58:38.017Z,36.6
2022-08-03T13:59:38.011Z,36.6
2022-08-03T14:00:38.010Z,36.5
2022-08-03T14:02:38.136Z,36.3